Time;durP1;ratioP1;P1;durP2;ratioP2;P2;SDS_P1;SDS_P2;PMS_P1;PMS_P2;Temp;Humidity;BMP_temperature;BMP_pressure;BME280_temperature;BME280_humidity;BME280_pressure;Samples;Min_cycle;Max_cycle;Signal;HPM_P1;HPM_P2
2021/08/21 00:02:15;;;;;;;0.03;0.03;;;15.00;99.90;;;;;;5133894;28;20035;-92
2021/08/21 00:04:42;;;;;;;0.00;0.00;;;15.00;99.90;;;;;;5117857;28;20047;-91
2021/08/21 00:07:09;;;;;;;0.10;0.10;;;15.10;99.90;;;;;;5151137;28;20038;-91
2021/08/21 00:09:37;;;;;;;0.00;0.00;;;15.10;99.90;;;;;;5116989;28;20498;-91
2021/08/21 00:12:05;;;;;;;0.00;0.00;;;15.10;99.90;;;;;;5150590;28;20040;-91
2021/08/21 00:14:33;;;;;;;0.00;0.00;;;15.10;99.90;;;;;;5150750;28;20051;-92
2021/08/21 00:17:01;;;;;;;0.55;0.08;;;15.20;99.90;;;;;;5134049;28;20093;-91
2021/08/21 00:19:28;;;;;;;0.00;0.00;;;15.20;99.90;;;;;;5133659;28;20067;-92
2021/08/21 00:21:55;;;;;;;0.10;0.10;;;15.20;99.90;;;;;;5133784;28;20044;-91
2021/08/21 00:24:22;;;;;;;0.00;0.00;;;15.20;99.90;;;;;;5116486;28;20088;-92
2021/08/21 00:26:49;;;;;;;0.00;0.00;;;15.20;99.90;;;;;;5133701;28;20111;-91
2021/08/21 00:29:16;;;;;;;0.00;0.00;;;15.30;99.90;;;;;;5100040;28;20063;-91
2021/08/21 00:31:44;;;;;;;0.57;0.38;;;15.30;99.90;;;;;;5133553;28;20402;-92
2021/08/21 00:34:11;;;;;;;0.10;0.10;;;15.20;99.90;;;;;;5102320;28;20523;-91
2021/08/21 00:36:38;;;;;;;0.00;0.00;;;15.20;99.90;;;;;;5113487;28;20119;-91
2021/08/21 00:39:04;;;;;;;0.00;0.00;;;15.20;99.90;;;;;;5095561;28;20051;-91
2021/08/21 00:41:34;;;;;;;0.20;0.20;;;15.20;99.90;;;;;;5113774;28;20441;-91
2021/08/21 00:44:05;;;;;;;0.10;0.10;;;15.20;99.90;;;;;;5113414;28;20453;-92
2021/08/21 00:46:31;;;;;;;0.13;0.10;;;15.20;99.90;;;;;;5112845;28;20055;-92
2021/08/21 00:49:00;;;;;;;0.03;0.03;;;15.10;99.90;;;;;;5096349;28;20040;-92
2021/08/21 00:51:27;;;;;;;0.30;0.20;;;15.10;99.90;;;;;;5112498;28;20044;-91
2021/08/21 00:53:54;;;;;;;0.03;0.03;;;15.10;99.90;;;;;;5079808;28;20051;-91
2021/08/21 00:56:20;;;;;;;0.35;0.28;;;15.10;99.90;;;;;;5095838;28;20036;-91
2021/08/21 00:58:47;;;;;;;0.00;0.00;;;15.20;99.90;;;;;;5096141;28;20054;-91
2021/08/21 01:01:14;;;;;;;0.00;0.00;;;15.20;99.90;;;;;;5096424;28;20491;-91
2021/08/21 01:03:41;;;;;;;0.00;0.00;;;15.20;99.90;;;;;;5095688;28;20044;-92
2021/08/21 01:06:08;;;;;;;0.00;0.00;;;15.20;99.90;;;;;;5096315;28;20059;-91
2021/08/21 01:08:35;;;;;;;0.73;0.47;;;15.20;99.90;;;;;;5112603;28;20036;-92
2021/08/21 01:11:02;;;;;;;0.35;0.25;;;15.30;99.90;;;;;;5112648;28;20495;-91
2021/08/21 01:13:28;;;;;;;0.00;0.00;;;15.30;99.90;;;;;;5095748;28;20035;-91
2021/08/21 01:15:55;;;;;;;0.22;0.22;;;15.30;99.90;;;;;;5112550;28;20036;-91
2021/08/21 01:18:23;;;;;;;0.00;0.00;;;15.30;99.90;;;;;;5112406;28;20399;-91
2021/08/21 01:20:50;;;;;;;0.00;0.00;;;15.30;99.90;;;;;;5095984;28;20047;-91
2021/08/21 01:23:18;;;;;;;0.00;0.00;;;15.30;99.90;;;;;;5096123;28;20392;-91
2021/08/21 01:25:45;;;;;;;0.00;0.00;;;15.30;99.90;;;;;;5112050;28;20062;-92
2021/08/21 01:28:11;;;;;;;0.00;0.00;;;15.30;99.90;;;;;;5095711;28;20052;-91
2021/08/21 01:30:42;;;;;;;0.13;0.13;;;15.20;99.90;;;;;;5096067;28;20048;-92
2021/08/21 01:33:09;;;;;;;0.00;0.00;;;15.20;99.90;;;;;;5095915;28;20040;-91
2021/08/21 01:35:36;;;;;;;0.00;0.00;;;15.20;99.90;;;;;;5095520;28;20060;-92
2021/08/21 01:38:03;;;;;;;0.00;0.00;;;15.20;99.90;;;;;;5095462;28;20443;-91
2021/08/21 01:40:31;;;;;;;0.00;0.00;;;15.10;99.90;;;;;;5095604;28;20108;-91
2021/08/21 01:42:59;;;;;;;0.13;0.13;;;15.10;99.90;;;;;;5112348;28;20487;-91
2021/08/21 01:45:26;;;;;;;0.00;0.00;;;15.10;99.90;;;;;;5111367;28;20034;-91
2021/08/21 01:47:53;;;;;;;0.10;0.10;;;15.10;99.90;;;;;;5095218;28;20028;-91
2021/08/21 01:50:20;;;;;;;0.08;0.08;;;15.00;99.90;;;;;;5095306;28;20476;-91
2021/08/21 01:52:48;;;;;;;0.00;0.00;;;15.10;99.90;;;;;;5094864;28;20036;-90
2021/08/21 01:55:16;;;;;;;0.05;0.05;;;15.10;99.90;;;;;;5095264;28;20044;-90
2021/08/21 01:57:46;;;;;;;0.17;0.10;;;15.10;99.90;;;;;;5111715;28;20051;-91
2021/08/21 02:00:14;;;;;;;0.00;0.00;;;15.10;99.90;;;;;;5128701;28;20547;-91
2021/08/21 02:02:44;;;;;;;0.63;0.10;;;15.10;99.90;;;;;;5094902;28;20047;-92
2021/08/21 02:05:11;;;;;;;0.22;0.20;;;15.10;99.90;;;;;;5111578;28;20088;-90
2021/08/21 02:07:38;;;;;;;0.00;0.00;;;15.20;99.90;;;;;;5094715;28;20131;-91
2021/08/21 02:10:05;;;;;;;0.08;0.08;;;15.10;99.90;;;;;;5094678;28;20434;-91
2021/08/21 02:12:33;;;;;;;0.13;0.13;;;15.20;99.90;;;;;;5077837;28;20496;-91
2021/08/21 02:15:05;;;;;;;0.00;0.00;;;15.20;99.90;;;;;;5111642;28;20059;-92
2021/08/21 02:17:31;;;;;;;0.00;0.00;;;15.10;99.90;;;;;;5128120;28;20532;-91
2021/08/21 02:19:58;;;;;;;0.03;0.03;;;15.20;99.90;;;;;;5094570;28;20118;-91
2021/08/21 02:22:25;;;;;;;0.43;0.13;;;15.10;99.90;;;;;;5094946;28;20044;-92
2021/08/21 02:24:52;;;;;;;0.10;0.10;;;15.10;99.90;;;;;;5095149;28;20385;-91
2021/08/21 02:27:25;;;;;;;0.00;0.00;;;15.10;99.90;;;;;;5111318;28;20038;-91
2021/08/21 02:29:52;;;;;;;0.00;0.00;;;15.10;99.90;;;;;;5111479;28;20040;-91
2021/08/21 02:32:20;;;;;;;0.10;0.05;;;15.10;99.90;;;;;;5094612;28;20048;-90
2021/08/21 02:34:47;;;;;;;0.00;0.00;;;15.00;99.90;;;;;;5127904;28;20540;-91
2021/08/21 02:37:15;;;;;;;0.00;0.00;;;15.00;99.90;;;;;;5128354;28;20036;-91
2021/08/21 02:39:42;;;;;;;0.20;0.10;;;15.00;99.90;;;;;;5111242;28;20043;-92
2021/08/21 02:42:09;;;;;;;0.10;0.10;;;15.10;99.90;;;;;;5111498;28;20042;-91
2021/08/21 02:44:36;;;;;;;0.00;0.00;;;15.00;99.90;;;;;;5110900;28;20032;-91
2021/08/21 02:47:04;;;;;;;0.00;0.00;;;15.10;99.90;;;;;;5094616;28;20036;-90
2021/08/21 02:49:35;;;;;;;0.00;0.00;;;15.00;99.90;;;;;;5111007;28;20040;-91
2021/08/21 02:52:02;;;;;;;0.00;0.00;;;15.00;99.90;;;;;;5111034;28;20047;-91
2021/08/21 02:54:30;;;;;;;0.00;0.00;;;15.00;99.90;;;;;;5078352;28;20036;-91
2021/08/21 02:56:58;;;;;;;0.00;0.00;;;15.00;99.90;;;;;;5111349;28;20032;-90
2021/08/21 02:59:25;;;;;;;0.00;0.00;;;15.00;99.90;;;;;;5111217;28;20032;-91
2021/08/21 03:01:52;;;;;;;0.08;0.08;;;15.00;99.90;;;;;;5110775;28;20035;-91
2021/08/21 03:04:19;;;;;;;0.30;0.30;;;15.00;99.90;;;;;;5094466;28;20058;-91
2021/08/21 03:06:45;;;;;;;0.00;0.00;;;15.10;99.90;;;;;;5127848;28;20032;-91
2021/08/21 03:09:13;;;;;;;0.00;0.00;;;15.10;99.90;;;;;;5111055;28;20048;-91
2021/08/21 03:11:40;;;;;;;0.00;0.00;;;15.10;99.90;;;;;;5094004;28;20048;-91
2021/08/21 03:14:07;;;;;;;0.00;0.00;;;15.10;99.90;;;;;;5094235;28;20533;-91
2021/08/21 03:16:34;;;;;;;0.63;0.20;;;15.10;99.90;;;;;;5094704;28;20097;-91
2021/08/21 03:19:02;;;;;;;0.00;0.00;;;15.10;99.90;;;;;;5096616;28;20058;-91
2021/08/21 03:21:28;;;;;;;0.00;0.00;;;15.20;99.90;;;;;;5114436;28;20046;-91
2021/08/21 03:23:55;;;;;;;0.77;0.22;;;15.10;99.90;;;;;;5081497;28;20535;-91
2021/08/21 03:26:22;;;;;;;0.00;0.00;;;15.20;99.90;;;;;;5114491;28;20074;-91
2021/08/21 03:28:49;;;;;;;0.05;0.05;;;15.20;99.90;;;;;;5130283;28;20040;-91
2021/08/21 03:31:16;;;;;;;0.20;0.20;;;15.20;99.90;;;;;;5116731;28;20040;-91
2021/08/21 03:33:43;;;;;;;0.10;0.10;;;15.20;99.90;;;;;;5130327;28;20043;-91
2021/08/21 03:36:10;;;;;;;0.10;0.05;;;15.10;99.90;;;;;;5105487;28;20036;-91
2021/08/21 03:38:37;;;;;;;0.20;0.20;;;15.20;99.90;;;;;;5080883;28;20044;-91
2021/08/21 03:41:04;;;;;;;0.00;0.00;;;15.20;99.90;;;;;;5097438;28;20392;-92
2021/08/21 03:43:31;;;;;;;1.40;0.20;;;15.20;99.90;;;;;;5131195;28;20391;-92
2021/08/21 03:45:58;;;;;;;0.00;0.00;;;15.20;99.90;;;;;;5114045;28;20048;-92
2021/08/21 03:48:24;;;;;;;0.00;0.00;;;15.20;99.90;;;;;;5080893;28;20048;-91
2021/08/21 03:50:51;;;;;;;0.00;0.00;;;15.20;99.90;;;;;;5113877;28;20092;-91
2021/08/21 03:53:19;;;;;;;0.00;0.00;;;15.20;99.90;;;;;;5097343;28;20047;-92
2021/08/21 03:55:48;;;;;;;0.00;0.00;;;15.20;99.90;;;;;;5113639;28;20032;-91
2021/08/21 03:58:16;;;;;;;0.00;0.00;;;15.20;99.90;;;;;;5130736;28;20066;-91
2021/08/21 04:00:43;;;;;;;0.00;0.00;;;15.10;99.90;;;;;;5113783;28;20071;-91
2021/08/21 04:03:10;;;;;;;0.43;0.20;;;15.20;99.90;;;;;;5096918;28;20063;-91
2021/08/21 04:05:37;;;;;;;0.00;0.00;;;15.20;99.90;;;;;;5097420;28;20040;-91
2021/08/21 04:08:04;;;;;;;0.00;0.00;;;15.20;99.90;;;;;;5096772;28;20055;-91
2021/08/21 04:10:31;;;;;;;0.00;0.00;;;15.10;99.90;;;;;;5130082;28;20036;-90
2021/08/21 04:12:58;;;;;;;0.00;0.00;;;15.10;99.90;;;;;;5080420;28;20039;-91
2021/08/21 04:15:25;;;;;;;0.00;0.00;;;15.20;99.90;;;;;;5079973;28;20479;-91
2021/08/21 04:17:52;;;;;;;0.00;0.00;;;15.10;99.90;;;;;;5080347;28;20085;-91
2021/08/21 04:20:19;;;;;;;0.00;0.00;;;15.10;99.90;;;;;;5112951;28;20028;-91
2021/08/21 04:22:46;;;;;;;0.00;0.00;;;15.10;99.90;;;;;;5079495;28;20078;-91
2021/08/21 04:25:13;;;;;;;0.08;0.08;;;15.10;99.90;;;;;;5063373;28;20400;-91
2021/08/21 04:27:40;;;;;;;0.10;0.10;;;15.10;99.90;;;;;;5063210;28;20069;-92
2021/08/21 04:30:07;;;;;;;0.10;0.10;;;15.20;99.90;;;;;;5079474;28;20040;-91
2021/08/21 04:32:34;;;;;;;0.00;0.00;;;15.10;99.90;;;;;;5096326;28;20115;-91
2021/08/21 04:35:01;;;;;;;0.00;0.00;;;15.10;99.90;;;;;;5095316;28;20533;-91
2021/08/21 04:37:28;;;;;;;0.00;0.00;;;15.10;99.90;;;;;;5062928;28;20052;-91
2021/08/21 04:39:55;;;;;;;0.00;0.00;;;15.10;99.90;;;;;;5079482;28;20078;-91
2021/08/21 04:42:21;;;;;;;0.05;0.05;;;15.10;99.90;;;;;;5079923;28;20101;-91
2021/08/21 04:44:48;;;;;;;0.00;0.00;;;15.20;99.90;;;;;;5079420;28;20052;-91
2021/08/21 04:47:15;;;;;;;0.40;0.10;;;15.20;99.90;;;;;;5079747;28;20497;-91
2021/08/21 04:49:42;;;;;;;0.00;0.00;;;15.20;99.90;;;;;;5079586;28;20103;-91
2021/08/21 04:52:09;;;;;;;0.00;0.00;;;15.20;99.90;;;;;;5095769;28;20063;-91
2021/08/21 04:54:36;;;;;;;0.20;0.20;;;15.20;99.90;;;;;;5063457;28;20471;-92
2021/08/21 04:57:06;;;;;;;0.10;0.10;;;15.20;99.90;;;;;;5080426;28;20866;-91
2021/08/21 04:59:33;;;;;;;0.00;0.00;;;15.20;99.90;;;;;;5079377;28;20078;-91
2021/08/21 05:02:00;;;;;;;0.00;0.00;;;15.20;99.90;;;;;;5062717;28;20609;-91
2021/08/21 05:04:26;;;;;;;0.15;0.15;;;15.20;99.90;;;;;;5079286;28;20032;-91
2021/08/21 05:06:53;;;;;;;0.05;0.05;;;15.20;99.90;;;;;;5095635;28;20111;-91
2021/08/21 05:09:20;;;;;;;0.00;0.00;;;15.20;99.90;;;;;;5112634;28;20475;-91
2021/08/21 05:11:47;;;;;;;0.13;0.13;;;15.20;99.90;;;;;;5087970;28;20048;-91
2021/08/21 05:14:14;;;;;;;0.63;0.30;;;15.30;99.90;;;;;;5078855;28;20373;-91
2021/08/21 05:16:43;;;;;;;0.10;0.10;;;15.30;99.90;;;;;;5112348;28;20036;-91
2021/08/21 05:19:23;;;;;;;0.10;0.10;;;15.30;99.90;;;;;;5095685;28;20044;-91
2021/08/21 05:21:52;;;;;;;0.00;0.00;;;15.30;99.90;;;;;;5099229;28;20093;-90
2021/08/21 05:24:19;;;;;;;0.20;0.20;;;15.30;99.90;;;;;;5112212;28;20089;-91
2021/08/21 05:26:47;;;;;;;0.10;0.10;;;15.30;99.90;;;;;;5079073;28;20445;-91
2021/08/21 05:29:15;;;;;;;0.08;0.08;;;15.40;99.90;;;;;;5112209;28;20032;-91
2021/08/21 05:31:43;;;;;;;0.00;0.00;;;15.30;99.90;;;;;;5112427;28;20468;-91
2021/08/21 05:34:13;;;;;;;1.45;0.20;;;15.40;99.90;;;;;;5128853;28;20038;-91
2021/08/21 05:36:40;;;;;;;0.00;0.00;;;15.40;99.90;;;;;;5112281;28;20050;-91
2021/08/21 05:39:10;;;;;;;0.10;0.10;;;15.40;99.90;;;;;;5112066;28;20531;-90
2021/08/21 05:41:37;;;;;;;0.00;0.00;;;15.40;99.90;;;;;;5112839;28;20048;-90
2021/08/21 05:44:08;;;;;;;0.00;0.00;;;15.40;99.90;;;;;;5096294;28;20139;-90
2021/08/21 05:46:35;;;;;;;0.10;0.10;;;15.40;99.90;;;;;;5128999;28;20063;-90
2021/08/21 05:49:02;;;;;;;0.10;0.10;;;15.40;99.90;;;;;;5094856;28;20067;-90
2021/08/21 05:51:29;;;;;;;0.20;0.10;;;15.40;99.90;;;;;;5128999;28;20032;-90
2021/08/21 05:53:57;;;;;;;0.00;0.00;;;15.40;99.90;;;;;;5112402;28;20051;-90
2021/08/21 05:56:25;;;;;;;0.10;0.10;;;15.40;99.90;;;;;;5095309;28;20112;-91
2021/08/21 05:58:52;;;;;;;0.00;0.00;;;15.50;99.90;;;;;;5095090;28;20044;-91
2021/08/21 06:01:19;;;;;;;0.00;0.00;;;15.50;99.90;;;;;;5095351;28;20074;-90
2021/08/21 06:03:46;;;;;;;0.05;0.05;;;15.50;99.90;;;;;;5095080;28;20050;-91
2021/08/21 06:06:13;;;;;;;0.10;0.10;;;15.50;99.90;;;;;;5095073;28;20047;-91
2021/08/21 06:08:40;;;;;;;0.00;0.00;;;15.60;99.90;;;;;;5128201;28;20119;-90
2021/08/21 06:11:07;;;;;;;0.20;0.20;;;15.60;99.90;;;;;;5110792;28;20052;-92
2021/08/21 06:13:34;;;;;;;0.00;0.00;;;15.60;99.90;;;;;;5094994;28;20044;-90
2021/08/21 06:16:01;;;;;;;0.00;0.00;;;15.70;99.90;;;;;;5110968;28;20209;-86
2021/08/21 06:18:28;;;;;;;0.00;0.00;;;15.80;99.90;;;;;;5094253;28;20068;-86
2021/08/21 06:21:01;;;;;;;0.00;0.00;;;15.80;99.90;;;;;;5127506;28;20039;-87
2021/08/21 06:23:28;;;;;;;0.00;0.00;;;16.10;99.90;;;;;;5114926;28;20051;-86
2021/08/21 06:25:57;;;;;;;0.00;0.00;;;15.90;99.90;;;;;;5132444;28;20062;-89
2021/08/21 06:28:26;;;;;;;0.00;0.00;;;16.00;99.90;;;;;;5132381;28;20055;-93
2021/08/21 06:30:54;;;;;;;0.00;0.00;;;16.00;99.90;;;;;;5132066;28;20044;-91
2021/08/21 06:33:21;;;;;;;0.28;0.10;;;16.10;99.90;;;;;;5131507;28;20479;-91
2021/08/21 06:36:05;;;;;;;0.00;0.00;;;16.10;99.90;;;;;;5131579;28;20043;-89
2021/08/21 06:38:57;;;;;;;0.00;0.00;;;16.10;99.90;;;;;;5121847;28;20047;-90
2021/08/21 06:41:32;;;;;;;0.10;0.10;;;16.10;99.90;;;;;;5132821;28;20071;-91
2021/08/21 06:43:59;;;;;;;0.00;0.00;;;16.20;99.90;;;;;;5115290;28;20074;-91
2021/08/21 06:46:26;;;;;;;0.03;0.03;;;16.20;99.90;;;;;;5114388;28;20050;-89
2021/08/21 06:48:53;;;;;;;0.10;0.10;;;16.20;99.90;;;;;;5115491;28;20134;-90
2021/08/21 06:51:20;;;;;;;0.00;0.00;;;16.30;99.90;;;;;;5148311;28;20035;-96
2021/08/21 06:53:51;;;;;;;0.00;0.00;;;16.40;99.90;;;;;;5151186;28;20089;-93
2021/08/21 06:56:18;;;;;;;0.00;0.00;;;16.20;99.90;;;;;;5137430;28;20081;-93
2021/08/21 06:59:41;;;;;;;0.08;0.08;;;16.40;99.90;;;;;;5120616;28;20048;-94
2021/08/21 07:02:10;;;;;;;0.10;0.05;;;16.50;99.90;;;;;;5152486;28;20035;-93
2021/08/21 07:04:37;;;;;;;0.75;0.43;;;16.50;99.90;;;;;;5135706;28;20040;-93
2021/08/21 07:07:04;;;;;;;0.30;0.30;;;16.50;99.90;;;;;;5135389;28;20044;-88
2021/08/21 07:09:31;;;;;;;0.10;0.10;;;16.50;99.90;;;;;;5134944;28;20097;-86
2021/08/21 07:11:58;;;;;;;0.00;0.00;;;16.60;99.90;;;;;;5134113;28;20047;-86
2021/08/21 07:14:24;;;;;;;0.20;0.20;;;16.70;99.90;;;;;;5117330;28;20039;-87
2021/08/21 07:16:51;;;;;;;0.05;0.05;;;16.80;99.90;;;;;;5101152;28;20070;-88
2021/08/21 07:19:18;;;;;;;0.00;0.00;;;16.80;99.90;;;;;;5117500;28;20050;-86
2021/08/21 07:21:52;;;;;;;0.10;0.10;;;16.80;99.90;;;;;;5117723;28;20096;-87
2021/08/21 07:24:24;;;;;;;0.17;0.17;;;16.90;99.90;;;;;;5135558;28;20131;-94
2021/08/21 07:26:51;;;;;;;0.10;0.10;;;17.00;99.90;;;;;;5153342;28;20035;-93
2021/08/21 07:29:18;;;;;;;0.00;0.00;;;17.10;99.90;;;;;;5118420;28;20028;-94
2021/08/21 07:31:45;;;;;;;0.13;0.13;;;17.10;99.90;;;;;;5152711;28;20036;-92
2021/08/21 07:34:12;;;;;;;0.00;0.00;;;17.20;99.90;;;;;;5136634;28;20388;-96
2021/08/21 07:36:45;;;;;;;0.20;0.20;;;17.20;99.90;;;;;;5119507;28;20459;-96
2021/08/21 07:39:14;;;;;;;0.00;0.00;;;17.30;99.90;;;;;;5138469;28;20116;-96
2021/08/21 07:41:41;;;;;;;0.15;0.10;;;17.30;99.90;;;;;;5135102;28;20053;-94
2021/08/21 07:44:09;;;;;;;0.30;0.30;;;17.50;99.90;;;;;;5135445;28;20138;-95
2021/08/21 07:46:36;;;;;;;0.05;0.05;;;17.50;99.90;;;;;;5134985;28;20047;-96
2021/08/21 07:49:03;;;;;;;0.28;0.28;;;17.60;99.90;;;;;;5153662;28;20039;-96
2021/08/21 07:51:30;;;;;;;0.20;0.20;;;17.70;99.90;;;;;;5152771;28;20471;-96
2021/08/21 07:53:57;;;;;;;0.28;0.28;;;17.70;99.90;;;;;;5134709;28;20040;-93
2021/08/21 07:56:25;;;;;;;0.08;0.05;;;17.70;99.90;;;;;;5134325;28;20514;-94
2021/08/21 07:58:51;;;;;;;0.35;0.22;;;17.70;99.90;;;;;;5117731;28;20039;-92
2021/08/21 08:01:18;;;;;;;0.30;0.30;;;17.80;99.90;;;;;;5100696;28;20087;-92
2021/08/21 08:03:45;;;;;;;0.43;0.30;;;17.90;99.90;;;;;;5100667;28;20475;-96
2021/08/21 08:06:14;;;;;;;0.30;0.30;;;17.90;99.90;;;;;;5151278;28;20028;-96
2021/08/21 08:08:41;;;;;;;0.77;0.50;;;18.00;99.90;;;;;;5151306;28;20039;-95
2021/08/21 08:11:08;;;;;;;0.95;0.43;;;18.10;99.90;;;;;;5116890;28;20047;-94
2021/08/21 08:13:35;;;;;;;0.52;0.32;;;18.20;99.90;;;;;;5150823;28;20032;-94
2021/08/21 08:16:11;;;;;;;0.43;0.25;;;18.20;99.90;;;;;;5135298;28;20059;-92
2021/08/21 08:18:37;;;;;;;0.32;0.25;;;18.20;99.90;;;;;;5150769;28;20032;-94
2021/08/21 08:21:04;;;;;;;0.80;0.20;;;18.20;99.90;;;;;;5134550;28;20062;-93
2021/08/21 08:23:31;;;;;;;0.10;0.10;;;18.20;99.90;;;;;;5121626;28;20058;-96
2021/08/21 08:25:58;;;;;;;0.52;0.40;;;18.30;99.90;;;;;;5134827;28;20051;-92
2021/08/21 08:28:25;;;;;;;0.10;0.10;;;18.30;99.90;;;;;;5116753;28;20079;-93
2021/08/21 08:30:54;;;;;;;1.52;0.60;;;18.40;99.90;;;;;;5133886;28;20050;-91
2021/08/21 08:33:22;;;;;;;0.20;0.20;;;18.50;99.90;;;;;;5133939;28;20039;-92
2021/08/21 08:35:51;;;;;;;0.77;0.50;;;18.60;99.90;;;;;;5103590;28;20047;-90
2021/08/21 08:39:15;;;;;;;0.45;0.40;;;18.60;99.90;;;;;;5116211;28;20059;-93
2021/08/21 08:42:10;;;;;;;0.43;0.20;;;18.60;99.90;;;;;;5103408;28;20055;-91
2021/08/21 08:44:46;;;;;;;0.50;0.45;;;18.70;99.90;;;;;;5115388;28;20071;-93
2021/08/21 08:47:22;;;;;;;1.10;0.45;;;18.80;99.90;;;;;;5132209;28;20051;-93
2021/08/21 08:50:32;;;;;;;0.20;0.20;;;18.50;99.90;;;;;;5111415;28;20040;-93
2021/08/21 08:53:49;;;;;;;0.73;0.47;;;19.00;99.90;;;;;;5113000;28;20048;-94
2021/08/21 09:00:04;;;;;;;0.65;0.30;;;19.40;99.90;;;;;;5069769;28;20049;-89
2021/08/21 09:03:33;;;;;;;1.65;0.90;;;19.60;99.90;;;;;;5053012;28;20057;-93
2021/08/21 09:06:00;;;;;;;0.30;0.28;;;19.60;99.90;;;;;;4988865;28;20049;-92
2021/08/21 09:08:31;;;;;;;1.13;0.35;;;19.70;99.90;;;;;;5059959;28;20488;-93
2021/08/21 09:11:02;;;;;;;2.13;0.55;;;19.90;99.90;;;;;;5098421;28;20539;-90
2021/08/21 09:13:31;;;;;;;0.47;0.38;;;20.00;99.90;;;;;;5127584;28;20032;-92
2021/08/21 09:16:01;;;;;;;1.05;0.43;;;20.10;99.90;;;;;;5110890;28;20197;-92
2021/08/21 09:18:30;;;;;;;0.20;0.20;;;20.30;99.90;;;;;;5111271;28;20040;-93
2021/08/21 09:20:59;;;;;;;0.08;0.08;;;20.40;99.90;;;;;;5123734;28;20058;-92
2021/08/21 09:23:50;;;;;;;0.82;0.73;;;20.50;99.90;;;;;;5149796;28;20039;-95
2021/08/21 09:26:24;;;;;;;0.77;0.60;;;20.70;99.90;;;;;;5132941;28;20035;-92
2021/08/21 09:28:59;;;;;;;0.88;0.30;;;20.70;99.90;;;;;;5133211;28;20092;-94
2021/08/21 09:31:37;;;;;;;0.10;0.10;;;20.70;99.90;;;;;;5133368;28;20050;-95
2021/08/21 09:34:18;;;;;;;0.10;0.10;;;20.70;99.90;;;;;;5120395;28;20433;-88
2021/08/21 09:36:52;;;;;;;0.30;0.30;;;20.70;99.90;;;;;;5116230;28;20500;-90
2021/08/21 09:39:40;;;;;;;1.23;0.77;;;20.80;99.90;;;;;;5139788;28;20486;-89
2021/08/21 09:42:09;;;;;;;0.75;0.50;;;20.90;99.90;;;;;;5139492;28;20054;-90
2021/08/21 09:44:39;;;;;;;0.55;0.55;;;21.00;99.90;;;;;;5128421;28;20042;-90
2021/08/21 09:47:14;;;;;;;0.80;0.40;;;20.90;99.90;;;;;;5111891;28;20082;-88
2021/08/21 09:49:44;;;;;;;0.30;0.30;;;21.00;99.90;;;;;;5128069;28;20032;-91
2021/08/21 09:52:14;;;;;;;0.63;0.47;;;20.80;99.90;;;;;;5094889;28;20047;-93
2021/08/21 09:54:44;;;;;;;0.30;0.13;;;20.90;99.90;;;;;;5095371;28;20044;-93
2021/08/21 09:57:19;;;;;;;0.55;0.40;;;20.90;99.90;;;;;;5129917;28;20442;-91
2021/08/21 09:59:56;;;;;;;0.98;0.70;;;20.80;99.90;;;;;;5115165;28;20126;-92
2021/08/21 10:02:24;;;;;;;0.50;0.30;;;20.80;99.90;;;;;;5095821;28;20044;-93
2021/08/21 10:04:52;;;;;;;0.47;0.47;;;20.80;99.90;;;;;;5112214;28;20043;-91
2021/08/21 10:07:21;;;;;;;0.30;0.28;;;20.80;99.90;;;;;;5111563;28;20189;-89
2021/08/21 10:09:52;;;;;;;0.15;0.15;;;20.90;99.90;;;;;;5112215;28;20604;-91
2021/08/21 10:12:22;;;;;;;0.08;0.08;;;20.90;99.90;;;;;;5111034;28;20052;-88
2021/08/21 10:14:50;;;;;;;1.10;0.28;;;21.10;99.90;;;;;;5127662;28;20593;-89
2021/08/21 10:17:21;;;;;;;0.28;0.28;;;21.10;99.90;;;;;;5111044;28;20506;-89
2021/08/21 10:19:50;;;;;;;0.75;0.50;;;21.10;99.90;;;;;;5111322;28;20040;-89
2021/08/21 10:22:19;;;;;;;0.38;0.38;;;21.10;99.90;;;;;;5111359;28;20047;-88
2021/08/21 10:24:48;;;;;;;0.22;0.20;;;21.10;99.90;;;;;;5094478;28;20085;-89
2021/08/21 10:27:29;;;;;;;0.15;0.15;;;21.10;99.90;;;;;;5096977;28;20083;-90
2021/08/21 10:30:03;;;;;;;0.22;0.20;;;21.40;99.90;;;;;;5131736;28;20032;-90
2021/08/21 10:32:59;;;;;;;0.20;0.20;;;21.50;99.90;;;;;;5115507;28;20552;-91
2021/08/21 10:35:46;;;;;;;0.20;0.20;;;21.70;99.90;;;;;;5115665;28;20129;-88
2021/08/21 10:38:37;;;;;;;0.73;0.47;;;21.50;99.90;;;;;;5132471;28;20048;-89
2021/08/21 10:41:10;;;;;;;0.30;0.30;;;21.60;99.90;;;;;;5117423;28;20044;-92
2021/08/21 10:43:52;;;;;;;0.20;0.20;;;21.80;99.90;;;;;;5133081;28;20154;-89
2021/08/21 10:46:42;;;;;;;0.57;0.20;;;22.00;99.90;;;;;;5135594;28;20047;-91
2021/08/21 10:49:09;;;;;;;1.10;0.80;;;22.20;99.90;;;;;;5127413;28;20050;-89
2021/08/21 10:51:39;;;;;;;0.85;0.40;;;22.20;99.90;;;;;;5101658;28;20106;-90
2021/08/21 10:54:25;;;;;;;1.00;0.52;;;22.30;99.90;;;;;;5152301;28;20035;-88
2021/08/21 10:57:18;;;;;;;0.10;0.10;;;22.30;99.90;;;;;;5151998;28;20108;-89
2021/08/21 10:59:47;;;;;;;0.10;0.10;;;22.30;99.90;;;;;;5151726;28;20051;-90
2021/08/21 11:02:26;;;;;;;1.00;0.55;;;22.20;99.90;;;;;;5118942;28;20479;-89
2021/08/21 11:04:53;;;;;;;0.45;0.43;;;22.10;99.90;;;;;;5135337;28;20046;-89
2021/08/21 11:07:29;;;;;;;0.38;0.30;;;21.90;99.90;;;;;;5135707;28;20479;-89
2021/08/21 11:10:18;;;;;;;1.00;0.20;;;21.80;99.90;;;;;;5135881;28;20054;-94
2021/08/21 11:12:50;;;;;;;0.52;0.47;;;21.70;99.90;;;;;;5099579;28;20529;-91
2021/08/21 11:15:26;;;;;;;0.68;0.50;;;21.70;99.90;;;;;;5083259;28;20585;-91
2021/08/21 11:17:53;;;;;;;2.50;0.68;;;21.60;99.90;;;;;;5101755;28;20445;-96
2021/08/21 11:28:44;;;;;;;0.38;0.20;;;21.50;99.90;;;;;;5003069;28;20052;-95
2021/08/21 11:31:26;;;;;;;0.60;0.32;;;21.50;99.90;;;;;;5027145;28;20080;-94
2021/08/21 11:34:02;;;;;;;0.52;0.47;;;21.70;99.90;;;;;;5089316;28;20051;-95
2021/08/21 11:36:36;;;;;;;1.05;0.32;;;21.80;99.90;;;;;;5079168;28;20093;-91
2021/08/21 11:39:10;;;;;;;0.80;0.40;;;21.80;99.90;;;;;;5060638;28;20052;-90
2021/08/21 11:41:54;;;;;;;0.28;0.20;;;22.10;99.90;;;;;;5078135;28;20472;-91
2021/08/21 11:45:03;;;;;;;0.10;0.10;;;22.30;99.90;;;;;;5078571;28;20170;-96
2021/08/21 11:48:39;;;;;;;0.10;0.10;;;22.40;99.90;;;;;;5095752;28;20124;-95
2021/08/21 11:52:01;;;;;;;0.10;0.10;;;22.60;99.90;;;;;;5067551;28;20078;-96
2021/08/21 11:58:45;;;;;;;0.30;0.20;;;22.60;99.90;;;;;;5031044;28;20525;-96
2021/08/21 12:01:14;;;;;;;0.10;0.10;;;22.70;99.90;;;;;;5015596;28;20141;-96
2021/08/21 12:06:28;;;;;;;2.05;0.65;;;22.60;99.90;;;;;;5094248;28;20052;-95
2021/08/21 12:09:16;;;;;;;3.72;0.50;;;22.60;99.90;;;;;;5094253;28;20039;-94
2021/08/21 12:11:45;;;;;;;0.10;0.10;;;22.60;99.90;;;;;;5085884;28;20167;-93
2021/08/21 12:14:14;;;;;;;0.10;0.10;;;22.90;99.90;;;;;;5094378;28;20040;-94
2021/08/21 12:16:42;;;;;;;0.30;0.30;;;22.90;99.90;;;;;;5094553;28;20036;-94
2021/08/21 12:19:09;;;;;;;0.40;0.40;;;22.90;99.90;;;;;;5109771;28;20521;-94
2021/08/21 12:21:37;;;;;;;0.25;0.20;;;22.80;99.90;;;;;;5110393;28;20043;-95
2021/08/21 12:24:11;;;;;;;0.13;0.13;;;22.70;99.90;;;;;;5109543;28;20487;-93
2021/08/21 12:26:46;;;;;;;0.13;0.13;;;22.90;99.90;;;;;;5109936;28;20551;-94
2021/08/21 12:29:20;;;;;;;0.93;0.20;;;23.00;99.90;;;;;;5110173;28;20056;-93
2021/08/21 12:31:50;;;;;;;0.30;0.30;;;23.00;99.90;;;;;;5109851;28;20115;-92
2021/08/21 12:34:20;;;;;;;0.55;0.22;;;22.90;99.90;;;;;;5093381;28;20056;-91
2021/08/21 12:36:47;;;;;;;0.17;0.17;;;23.00;99.90;;;;;;5093008;28;20070;-89
2021/08/21 12:39:27;;;;;;;0.10;0.10;;;23.20;99.90;;;;;;5109416;28;20044;-90
2021/08/21 12:42:03;;;;;;;0.10;0.10;;;23.20;99.90;;;;;;5093034;28;20068;-89
2021/08/21 12:44:30;;;;;;;0.10;0.10;;;23.10;99.90;;;;;;5092663;28;20049;-91
2021/08/21 12:47:11;;;;;;;0.10;0.10;;;23.00;99.90;;;;;;5092917;28;20407;-90
2021/08/21 12:49:40;;;;;;;0.20;0.20;;;23.00;99.90;;;;;;5108833;28;20090;-93
2021/08/21 12:52:12;;;;;;;0.30;0.20;;;23.10;99.90;;;;;;5107947;28;20036;-89
2021/08/21 12:54:40;;;;;;;0.00;0.00;;;23.10;99.90;;;;;;5092854;28;20044;-89
2021/08/21 12:57:19;;;;;;;0.00;0.00;;;23.20;99.90;;;;;;5093024;28;20126;-90
2021/08/21 13:00:12;;;;;;;0.32;0.30;;;23.30;99.90;;;;;;5109276;28;20036;-88
2021/08/21 13:02:42;;;;;;;0.20;0.20;;;23.30;99.90;;;;;;5108760;28;20124;-92
2021/08/21 13:05:30;;;;;;;0.52;0.17;;;23.30;99.90;;;;;;5092302;28;20059;-91
2021/08/21 13:07:59;;;;;;;0.10;0.10;;;23.30;99.90;;;;;;5092527;28;20040;-91
2021/08/21 13:10:26;;;;;;;0.15;0.15;;;23.30;99.90;;;;;;5109891;28;20096;-91
2021/08/21 13:12:54;;;;;;;0.32;0.30;;;23.30;99.90;;;;;;5112171;28;20048;-90
2021/08/21 13:15:21;;;;;;;0.08;0.08;;;23.20;99.90;;;;;;5111901;28;20111;-89
2021/08/21 13:17:49;;;;;;;0.35;0.20;;;23.10;99.90;;;;;;5095779;28;20036;-90
2021/08/21 13:20:17;;;;;;;1.08;0.30;;;23.00;99.90;;;;;;5111704;28;20043;-90
2021/08/21 13:22:46;;;;;;;0.30;0.20;;;23.00;99.90;;;;;;5112065;28;20050;-90
2021/08/21 13:25:14;;;;;;;0.10;0.10;;;22.80;99.90;;;;;;5096106;28;20135;-90
2021/08/21 13:27:40;;;;;;;0.00;0.00;;;22.80;99.90;;;;;;5095910;28;20075;-88